Time;durP1;ratioP1;P1;durP2;ratioP2;P2;SDS_P1;SDS_P2;PMS_P1;PMS_P2;Temp;Humidity;BMP_temperature;BMP_pressure;BME280_temperature;BME280_humidity;BME280_pressure;Samples;Min_cycle;Max_cycle;Signal;HPM_P1;HPM_P2
2022/06/17 00:01:40;;;;;;;;;;;;;;;14.36;59.37;100348.19;1738643;82;21113;-80
2022/06/17 00:04:47;;;;;;;;;;;;;;;14.33;59.22;100347.20;1737213;82;20218;-80
2022/06/17 00:07:51;;;;;;;;;;;;;;;14.28;59.41;100346.95;1746750;82;20229;-81
2022/06/17 00:10:57;;;;;;;;;;;;;;;14.25;59.72;100342.68;1778792;81;20226;-80
2022/06/17 00:14:02;;;;;;;;;;;;;;;14.28;59.61;100348.32;1777594;81;20211;-81
2022/06/17 00:17:08;;;;;;;;;;;;;;;14.26;59.60;100349.06;1778924;81;21110;-81
2022/06/17 00:20:14;;;;;;;;;;;;;;;14.24;59.67;100343.73;1778886;81;20231;-81
2022/06/17 00:23:25;;;;;;;;;;;;;;;14.24;60.01;100340.14;1776269;80;20218;-81
2022/06/17 00:26:30;;;;;;;;;;;;;;;14.26;60.20;100340.28;1776649;81;20215;-81
2022/06/17 00:29:38;;;;;;;;;;;;;;;14.29;60.01;100347.27;1776561;81;20215;-81
2022/06/17 00:32:43;;;;;;;;;;;;;;;14.27;59.97;100345.25;1776502;81;20195;-81
2022/06/17 00:35:51;;;;;;;;;;;;;;;14.28;60.17;100342.82;1776656;81;20628;-81
2022/06/17 00:38:58;;;;;;;;;;;;;;;14.29;60.08;100341.77;1777236;81;20624;-81
2022/06/17 00:42:07;;;;;;;;;;;;;;;14.28;60.22;100339.54;1776886;81;20206;-81
2022/06/17 00:45:30;;;;;;;;;;;;;;;14.25;60.19;100342.68;1775049;81;20211;-81
2022/06/17 00:48:33;;;;;;;;;;;;;;;14.20;60.40;100341.58;1776111;81;20196;-80
2022/06/17 00:51:41;;;;;;;;;;;;;;;14.17;60.89;100335.97;1776600;81;20239;-81
2022/06/17 00:54:52;;;;;;;;;;;;;;;14.18;60.98;100333.55;1774896;81;20596;-81
2022/06/17 00:57:57;;;;;;;;;;;;;;;14.17;61.02;100338.72;1774568;81;20230;-80
2022/06/17 01:01:03;;;;;;;;;;;;;;;14.16;61.23;100326.52;1776188;81;20191;-80
2022/06/17 01:04:10;;;;;;;;;;;;;;;14.14;61.45;100328.63;1775472;81;20199;-80
2022/06/17 01:07:22;;;;;;;;;;;;;;;14.11;61.36;100329.02;1774862;81;20211;-81
2022/06/17 01:10:22;;;;;;;;;;;;;;;14.10;61.25;100317.70;1776582;81;20279;-80
2022/06/17 01:13:14;;;;;;;;;;;;;;;14.10;61.08;100320.45;1776536;81;20218;-81
2022/06/17 01:16:19;;;;;;;;;;;;;;;14.09;60.98;100317.38;1775546;81;20215;-81
2022/06/17 01:19:35;;;;;;;;;;;;;;;14.06;61.50;100322.21;1775806;81;20215;-80
2022/06/17 01:22:56;;;;;;;;;;;;;;;14.11;60.87;100319.39;1776658;81;20628;-81
2022/06/17 01:26:01;;;;;;;;;;;;;;;14.14;61.08;100319.01;1771195;81;20660;-80
2022/06/17 01:29:07;;;;;;;;;;;;;;;14.21;61.45;100318.02;1771192;81;20211;-81
2022/06/17 01:32:14;;;;;;;;;;;;;;;14.24;61.46;100324.48;1771126;81;20247;-80
2022/06/17 01:35:18;;;;;;;;;;;;;;;14.23;61.91;100323.31;1751836;81;20259;-80
2022/06/17 01:38:22;;;;;;;;;;;;;;;14.19;62.06;100318.73;1751990;81;20224;-80
2022/06/17 01:41:28;;;;;;;;;;;;;;;14.14;61.53;100319.01;1739036;82;20706;-81
2022/06/17 01:44:36;;;;;;;;;;;;;;;14.06;61.31;100321.37;1717214;82;20206;-81
2022/06/17 01:47:39;;;;;;;;;;;;;;;14.02;61.41;100318.19;1725495;83;20216;-80
2022/06/17 01:50:46;;;;;;;;;;;;;;;14.00;61.88;100316.14;1753899;82;20593;-80
2022/06/17 01:53:53;;;;;;;;;;;;;;;14.03;61.79;100318.51;1699328;83;20683;-81
2022/06/17 01:57:00;;;;;;;;;;;;;;;14.12;61.67;100318.37;1725800;83;20680;-81
2022/06/17 02:00:01;;;;;;;;;;;;;;;14.43;61.66;100327.05;1731399;82;20257;-81
2022/06/17 02:03:00;;;;;;;;;;;;;;;14.92;60.60;100313.73;1731805;82;20349;-81
2022/06/17 02:06:29;;;;;;;;;;;;;;;15.41;59.48;100318.14;1730434;82;20229;-80
2022/06/17 02:09:26;;;;;;;;;;;;;;;15.98;57.84;100315.41;1643613;86;20232;-81
2022/06/17 02:12:32;;;;;;;;;;;;;;;16.66;55.97;100315.14;1730053;83;20663;-81
2022/06/17 02:15:40;;;;;;;;;;;;;;;17.22;54.27;100314.56;1748206;81;20229;-81
2022/06/17 02:18:52;;;;;;;;;;;;;;;17.74;52.64;100314.52;1752857;82;20216;-81
2022/06/17 02:22:00;;;;;;;;;;;;;;;18.14;50.98;100315.89;1753093;82;20246;-81
2022/06/17 02:25:07;;;;;;;;;;;;;;;18.47;50.20;100318.90;1755911;81;20282;-81
2022/06/17 02:28:11;;;;;;;;;;;;;;;18.74;49.15;100313.12;1757718;81;20239;-81
2022/06/17 02:31:15;;;;;;;;;;;;;;;18.97;48.39;100311.91;1741594;81;20211;-81
2022/06/17 02:34:14;;;;;;;;;;;;;;;19.35;47.72;100314.95;1762232;81;20215;-81
2022/06/17 02:37:22;;;;;;;;;;;;;;;19.76;46.48;100316.09;1746605;81;20692;-81
2022/06/17 02:40:43;;;;;;;;;;;;;;;20.21;45.63;100310.05;1745716;82;20227;-81
2022/06/17 02:43:51;;;;;;;;;;;;;;;20.59;44.52;100316.01;1752652;81;20211;-81
2022/06/17 02:46:55;;;;;;;;;;;;;;;21.09;43.44;100318.25;1775510;81;20404;-81
2022/06/17 02:49:58;;;;;;;;;;;;;;;21.34;42.74;100318.52;1759767;81;20199;-81
2022/06/17 02:53:04;;;;;;;;;;;;;;;21.55;42.53;100319.75;1774858;81;20211;-81
2022/06/17 02:56:13;;;;;;;;;;;;;;;21.84;42.39;100317.27;1747995;81;20246;-81
2022/06/17 02:59:30;;;;;;;;;;;;;;;22.18;42.10;100316.78;1730373;82;20276;-82
2022/06/17 03:02:43;;;;;;;;;;;;;;;22.55;41.66;100320.45;1726724;83;20219;-81
2022/06/17 03:05:51;;;;;;;;;;;;;;;23.01;40.91;100316.98;1744121;81;20208;-81
2022/06/17 03:08:56;;;;;;;;;;;;;;;23.38;40.69;100307.93;1758756;81;20613;-82
2022/06/17 03:12:11;;;;;;;;;;;;;;;23.64;40.30;100307.16;1743175;82;20244;-81
2022/06/17 03:15:18;;;;;;;;;;;;;;;23.93;40.09;100313.31;1747535;82;20241;-82
2022/06/17 03:18:23;;;;;;;;;;;;;;;24.13;39.41;100309.86;1753158;81;20219;-81
2022/06/17 03:21:30;;;;;;;;;;;;;;;24.37;39.06;100310.40;1773376;81;20247;-81
2022/06/17 03:25:03;;;;;;;;;;;;;;;24.55;38.88;100319.45;1717801;82;20195;-81
2022/06/17 03:28:10;;;;;;;;;;;;;;;24.64;39.30;100318.68;1642064;82;20234;-81
2022/06/17 03:31:19;;;;;;;;;;;;;;;24.64;39.94;100315.88;1742627;81;20269;-81
2022/06/17 03:34:30;;;;;;;;;;;;;;;24.66;40.15;100315.64;1727567;82;20255;-81
2022/06/17 03:38:01;;;;;;;;;;;;;;;24.70;40.19;100319.02;1750522;82;20216;-81
2022/06/17 03:41:09;;;;;;;;;;;;;;;24.86;39.64;100314.36;1754648;82;20651;-81
2022/06/17 03:44:21;;;;;;;;;;;;;;;25.13;37.98;100317.06;1754696;82;20623;-81
2022/06/17 03:47:31;;;;;;;;;;;;;;;25.42;39.00;100313.82;1754723;82;20245;-81
2022/06/17 03:50:42;;;;;;;;;;;;;;;25.61;38.65;100316.39;1738416;80;20219;-81
2022/06/17 03:53:51;;;;;;;;;;;;;;;25.74;37.25;100318.67;1727660;82;20242;-81
2022/06/17 03:56:58;;;;;;;;;;;;;;;25.85;38.17;100315.36;1731653;82;20231;-81
2022/06/17 04:00:03;;;;;;;;;;;;;;;25.85;36.03;100315.92;1754551;82;20199;-81
2022/06/17 04:03:09;;;;;;;;;;;;;;;25.88;35.69;100316.22;1743418;82;20197;-81
2022/06/17 04:06:17;;;;;;;;;;;;;;;25.87;35.50;100313.11;1747861;82;20627;-81
2022/06/17 04:09:29;;;;;;;;;;;;;;;25.84;35.70;100312.84;1755109;82;20219;-81
2022/06/17 04:12:36;;;;;;;;;;;;;;;25.77;35.82;100313.66;1753484;81;20246;-81
2022/06/17 04:15:58;;;;;;;;;;;;;;;25.71;35.68;100320.62;1749735;82;20211;-81
2022/06/17 04:19:12;;;;;;;;;;;;;;;25.62;37.81;100313.88;1731522;81;20216;-82
2022/06/17 04:22:26;;;;;;;;;;;;;;;25.52;37.54;100308.25;1729753;82;20616;-81
2022/06/17 04:25:56;;;;;;;;;;;;;;;25.44;37.78;100306.81;1734975;81;20244;-81
2022/06/17 04:29:08;;;;;;;;;;;;;;;25.47;37.50;100302.07;1719528;82;20213;-81
2022/06/17 04:32:31;;;;;;;;;;;;;;;25.44;36.46;100305.97;1746106;82;20228;-81
2022/06/17 04:35:37;;;;;;;;;;;;;;;25.24;36.45;100308.14;1718000;82;20622;-81
2022/06/17 04:38:44;;;;;;;;;;;;;;;25.20;36.95;100306.44;1744070;82;20221;-81
2022/06/17 04:42:08;;;;;;;;;;;;;;;25.19;36.93;100304.77;1687590;83;20233;-81
2022/06/17 04:45:15;;;;;;;;;;;;;;;25.19;36.58;100303.36;1747860;81;20218;-81
2022/06/17 04:48:21;;;;;;;;;;;;;;;25.06;36.06;100302.42;1736218;81;20218;-81
2022/06/17 04:51:27;;;;;;;;;;;;;;;24.87;36.19;100304.84;1736578;82;20237;-81
2022/06/17 04:54:33;;;;;;;;;;;;;;;24.89;37.06;100304.56;1736499;82;20228;-81
2022/06/17 04:57:46;;;;;;;;;;;;;;;24.97;36.83;100307.69;1755167;81;20661;-81
2022/06/17 05:00:55;;;;;;;;;;;;;;;25.08;36.94;100314.23;1739608;81;20253;-81
2022/06/17 05:04:04;;;;;;;;;;;;;;;25.16;36.41;100312.30;1738293;82;20211;-81
2022/06/17 05:07:12;;;;;;;;;;;;;;;25.16;35.61;100315.09;1720655;82;20255;-81
2022/06/17 05:10:18;;;;;;;;;;;;;;;25.14;35.48;100318.73;1720611;82;20259;-81
2022/06/17 05:13:26;;;;;;;;;;;;;;;25.21;35.57;100317.08;1698879;82;20646;-81
2022/06/17 05:16:31;;;;;;;;;;;;;;;25.24;35.40;100320.17;1718182;82;20243;-82
2022/06/17 05:19:40;;;;;;;;;;;;;;;25.28;34.89;100321.05;1721633;82;20655;-82
2022/06/17 05:22:49;;;;;;;;;;;;;;;25.36;35.77;100322.77;1735322;82;20844;-82
2022/06/17 05:25:56;;;;;;;;;;;;;;;25.49;35.64;100315.22;1737833;82;20232;-82
2022/06/17 05:29:00;;;;;;;;;;;;;;;25.62;35.60;100317.23;1718964;82;20271;-82
2022/06/17 05:32:11;;;;;;;;;;;;;;;25.75;35.34;100316.72;1727039;82;20236;-82
2022/06/17 05:35:16;;;;;;;;;;;;;;;25.85;34.81;100317.33;1729482;82;20623;-82
2022/06/17 05:38:14;;;;;;;;;;;;;;;25.89;34.09;100311.45;1722087;82;20223;-82
2022/06/17 05:41:24;;;;;;;;;;;;;;;26.04;33.49;100309.22;1732726;82;20247;-83
2022/06/17 05:44:28;;;;;;;;;;;;;;;26.06;32.95;100314.81;1726451;82;20239;-83
2022/06/17 05:47:28;;;;;;;;;;;;;;;26.15;32.64;100312.30;1730826;82;20221;-83
2022/06/17 05:50:40;;;;;;;;;;;;;;;26.23;32.95;100314.55;1726298;82;20619;-83
2022/06/17 05:54:02;;;;;;;;;;;;;;;26.29;32.21;100308.38;1725180;82;20201;-83
2022/06/17 05:57:20;;;;;;;;;;;;;;;26.42;32.36;100317.64;1733453;82;20683;-83
2022/06/17 06:00:26;;;;;;;;;;;;;;;26.62;32.51;100309.22;1728065;83;20209;-83
2022/06/17 06:03:34;;;;;;;;;;;;;;;26.74;32.13;100313.98;1733420;83;20209;-83
2022/06/17 06:06:39;;;;;;;;;;;;;;;26.92;31.90;100308.91;1739518;81;20222;-82
2022/06/17 06:10:02;;;;;;;;;;;;;;;27.09;32.73;100308.02;1728189;83;20254;-83
2022/06/17 06:13:08;;;;;;;;;;;;;;;27.28;33.06;100295.59;1751301;81;20219;-82
2022/06/17 06:16:15;;;;;;;;;;;;;;;27.45;32.25;100292.43;1746551;81;20247;-82
2022/06/17 06:19:22;;;;;;;;;;;;;;;27.63;31.11;100288.96;1722338;81;20260;-80
2022/06/17 06:22:28;;;;;;;;;;;;;;;27.76;30.38;100284.70;1716172;81;20217;-79
2022/06/17 06:25:32;;;;;;;;;;;;;;;27.85;29.91;100289.95;1716106;82;20342;-82
2022/06/17 06:28:37;;;;;;;;;;;;;;;27.96;30.12;100288.77;1727697;82;20208;-81
2022/06/17 06:31:45;;;;;;;;;;;;;;;28.01;29.67;100290.70;1744271;82;20230;-81
2022/06/17 06:34:54;;;;;;;;;;;;;;;28.05;29.32;100282.53;1733296;82;20246;-81
2022/06/17 06:37:59;;;;;;;;;;;;;;;28.11;29.68;100277.97;1722355;82;20218;-81
2022/06/17 06:41:04;;;;;;;;;;;;;;;28.06;28.92;100275.20;1706008;84;20190;-81
2022/06/17 06:44:08;;;;;;;;;;;;;;;28.09;29.53;100269.00;1738047;82;20409;-81
2022/06/17 06:47:26;;;;;;;;;;;;;;;28.08;29.06;100273.49;1722177;82;20432;-81
2022/06/17 06:50:34;;;;;;;;;;;;;;;28.20;29.09;100269.17;1755618;81;20251;-81
2022/06/17 06:53:40;;;;;;;;;;;;;;;28.34;27.85;100273.59;1741035;81;20229;-82
2022/06/17 06:56:44;;;;;;;;;;;;;;;28.47;27.02;100272.06;1722969;82;20229;-81
2022/06/17 06:59:50;;;;;;;;;;;;;;;28.58;27.19;100278.42;1747065;82;20227;-81
2022/06/17 07:02:55;;;;;;;;;;;;;;;28.66;27.71;100270.75;1730219;82;20245;-81
2022/06/17 07:06:05;;;;;;;;;;;;;;;28.76;27.47;100268.66;1760195;81;20696;-81
2022/06/17 07:09:12;;;;;;;;;;;;;;;28.85;26.09;100273.64;1760303;81;20223;-81
2022/06/17 07:12:18;;;;;;;;;;;;;;;28.82;25.21;100275.06;1758552;81;20526;-81
2022/06/17 07:15:22;;;;;;;;;;;;;;;28.74;25.64;100266.69;1759985;81;20223;-81
2022/06/17 07:18:27;;;;;;;;;;;;;;;28.73;25.26;100270.65;1764925;81;20242;-80
2022/06/17 07:21:34;;;;;;;;;;;;;;;28.60;25.03;100259.26;1768279;81;20214;-81
2022/06/17 07:24:38;;;;;;;;;;;;;;;28.40;24.53;100258.33;1759910;81;20195;-81
2022/06/17 07:27:42;;;;;;;;;;;;;;;28.33;24.27;100257.82;1767093;81;20239;-81
2022/06/17 07:30:59;;;;;;;;;;;;;;;28.37;25.38;100248.23;1770368;81;20644;-81
2022/06/17 07:34:03;;;;;;;;;;;;;;;28.38;24.65;100247.13;1765521;81;21159;-81
2022/06/17 07:40:29;;;;;;;;;;;;;;;28.36;25.57;100243.18;1758806;81;20254;-81
2022/06/17 07:43:33;;;;;;;;;;;;;;;28.42;25.61;100241.14;1750024;81;20199;-81
2022/06/17 07:46:37;;;;;;;;;;;;;;;28.58;25.37;100245.50;1763905;81;20211;-81
2022/06/17 07:49:41;;;;;;;;;;;;;;;28.66;26.27;100246.83;1728869;82;20221;-81
2022/06/17 07:52:46;;;;;;;;;;;;;;;28.67;26.33;100245.12;1736220;82;20228;-81
2022/06/17 07:55:50;;;;;;;;;;;;;;;28.69;26.42;100239.18;1750978;81;20238;-81
2022/06/17 07:58:56;;;;;;;;;;;;;;;28.56;26.23;100230.91;1725416;82;20599;-80
2022/06/17 08:01:59;;;;;;;;;;;;;;;28.40;25.47;100238.64;1718664;82;20245;-80
2022/06/17 08:05:04;;;;;;;;;;;;;;;28.18;25.57;100235.44;1694957;82;20257;-80
2022/06/17 08:08:26;;;;;;;;;;;;;;;28.04;25.82;100233.87;1732313;82;20261;-80
2022/06/17 08:11:24;;;;;;;;;;;;;;;27.98;25.97;100237.30;1713932;83;20254;-80
2022/06/17 08:14:27;;;;;;;;;;;;;;;28.01;26.13;100235.31;1713626;82;20249;-81
2022/06/17 08:17:33;;;;;;;;;;;;;;;28.16;25.73;100229.29;1724523;82;20221;-80
2022/06/17 08:20:41;;;;;;;;;;;;;;;28.32;25.58;100229.40;1691637;85;20251;-80
2022/06/17 08:23:46;;;;;;;;;;;;;;;28.48;25.19;100228.73;1727975;82;20245;-80
2022/06/17 08:26:52;;;;;;;;;;;;;;;28.77;25.66;100227.27;1738193;82;20306;-80
2022/06/17 08:29:58;;;;;;;;;;;;;;;29.06;24.97;100225.81;1727541;81;20662;-80
2022/06/17 08:33:03;;;;;;;;;;;;;;;29.33;24.23;100225.75;1735923;82;20276;-80
2022/06/17 08:36:16;;;;;;;;;;;;;;;29.41;23.80;100224.50;1721012;82;20249;-80
2022/06/17 08:39:20;;;;;;;;;;;;;;;29.42;23.98;100219.13;1728532;82;20252;-80
2022/06/17 08:42:43;;;;;;;;;;;;;;;29.40;24.20;100215.77;1743118;82;20599;-80
2022/06/17 08:46:20;;;;;;;;;;;;;;;29.39;23.48;100217.48;1712545;83;20166;-80
2022/06/17 08:49:29;;;;;;;;;;;;;;;29.42;24.56;100214.91;1713707;82;20415;-81
2022/06/17 08:53:07;;;;;;;;;;;;;;;29.64;24.70;100221.92;1713447;83;20315;-80
2022/06/17 08:56:16;;;;;;;;;;;;;;;29.83;25.13;100216.27;1716510;82;20211;-80
2022/06/17 08:59:41;;;;;;;;;;;;;;;29.95;23.73;100220.88;1712871;84;20231;-80
2022/06/17 09:03:26;;;;;;;;;;;;;;;29.90;24.77;100218.14;1730472;82;20339;-80
2022/06/17 09:06:55;;;;;;;;;;;;;;;29.93;24.63;100217.53;1725281;82;20406;-81
2022/06/17 09:10:09;;;;;;;;;;;;;;;29.82;24.59;100223.06;1719763;82;20626;-80
2022/06/17 09:13:43;;;;;;;;;;;;;;;29.93;25.16;100217.53;1718586;82;20211;-80
2022/06/17 09:16:51;;;;;;;;;;;;;;;29.97;24.50;100222.80;1731985;82;20224;-80
2022/06/17 09:19:59;;;;;;;;;;;;;;;30.13;23.95;100222.84;1729384;82;20269;-80
2022/06/17 09:23:06;;;;;;;;;;;;;;;30.27;22.77;100222.31;1736255;82;20363;-80
2022/06/17 09:26:12;;;;;;;;;;;;;;;30.39;24.49;100220.97;1733476;82;20217;-80
2022/06/17 09:29:23;;;;;;;;;;;;;;;30.51;24.61;100217.08;1729907;82;20229;-80
2022/06/17 09:32:46;;;;;;;;;;;;;;;30.65;23.28;100218.50;1729628;82;20233;-80
2022/06/17 09:36:15;;;;;;;;;;;;;;;30.72;23.89;100211.30;1719432;82;20231;-81
2022/06/17 09:39:22;;;;;;;;;;;;;;;30.89;23.93;100214.93;1721249;82;20233;-80
2022/06/17 09:42:38;;;;;;;;;;;;;;;30.93;23.85;100215.98;1728005;82;20599;-80
2022/06/17 09:45:49;;;;;;;;;;;;;;;30.80;23.07;100212.00;1739398;82;20241;-80
2022/06/17 09:49:00;;;;;;;;;;;;;;;30.71;23.82;100217.28;1735701;82;20245;-81
2022/06/17 09:52:21;;;;;;;;;;;;;;;30.56;22.76;100215.56;1731476;82;20237;-81
2022/06/17 09:55:32;;;;;;;;;;;;;;;30.31;22.95;100218.30;1727973;82;20256;-80
2022/06/17 09:58:44;;;;;;;;;;;;;;;30.08;23.73;100215.86;1736615;82;20223;-80
2022/06/17 10:01:51;;;;;;;;;;;;;;;30.06;23.66;100218.12;1731995;82;20237;-80
2022/06/17 10:04:59;;;;;;;;;;;;;;;29.93;23.28;100219.78;1738839;82;20248;-80
2022/06/17 10:08:15;;;;;;;;;;;;;;;29.74;22.63;100219.80;1737168;82;20246;-80
2022/06/17 10:11:29;;;;;;;;;;;;;;;29.49;22.76;100207.47;1741132;82;20209;-80
2022/06/17 10:14:49;;;;;;;;;;;;;;;29.20;24.05;100216.06;1720767;82;20236;-81
2022/06/17 10:18:33;;;;;;;;;;;;;;;28.93;25.63;100209.05;1712115;83;20239;-80
2022/06/17 10:22:01;;;;;;;;;;;;;;;28.68;25.85;100208.80;1713606;84;20227;-80
2022/06/17 10:25:20;;;;;;;;;;;;;;;28.41;26.84;100214.16;1717675;82;20214;-80
2022/06/17 10:28:28;;;;;;;;;;;;;;;28.38;27.66;100211.96;1714467;82;20233;-80
2022/06/17 10:31:43;;;;;;;;;;;;;;;28.48;26.95;100204.81;1731407;82;20220;-80
2022/06/17 10:35:01;;;;;;;;;;;;;;;28.69;26.00;100207.66;1732018;82;20331;-80
2022/06/17 10:38:07;;;;;;;;;;;;;;;28.92;26.71;100200.91;1742891;82;20241;-80
2022/06/17 10:41:10;;;;;;;;;;;;;;;29.00;26.96;100208.73;1722735;82;20252;-80
2022/06/17 10:44:18;;;;;;;;;;;;;;;28.95;27.38;100202.59;1728511;82;20253;-80
2022/06/17 10:47:39;;;;;;;;;;;;;;;28.84;26.43;100191.72;1698472;83;20519;-79
2022/06/17 10:50:45;;;;;;;;;;;;;;;28.89;25.88;100191.11;1716274;83;20427;-80
2022/06/17 10:53:52;;;;;;;;;;;;;;;29.03;27.23;100185.05;1699262;84;20215;-81
2022/06/17 10:57:06;;;;;;;;;;;;;;;29.21;27.10;100176.89;1716803;83;20206;-81
2022/06/17 11:00:17;;;;;;;;;;;;;;;29.40;27.37;100174.08;1704536;83;20245;-80
2022/06/17 11:03:41;;;;;;;;;;;;;;;29.60;26.76;100174.39;1718735;83;20238;-80
2022/06/17 11:07:07;;;;;;;;;;;;;;;29.79;26.21;100167.57;1718318;83;20231;-81
2022/06/17 11:10:22;;;;;;;;;;;;;;;29.89;25.36;100164.31;1703091;84;20588;-81
2022/06/17 11:13:26;;;;;;;;;;;;;;;30.02;24.67;100162.11;1702818;84;20195;-85
2022/06/17 11:16:32;;;;;;;;;;;;;;;30.16;23.70;100160.73;1703370;84;20207;-84
2022/06/17 11:19:38;;;;;;;;;;;;;;;30.23;23.70;100159.19;1701827;83;20208;-84
2022/06/17 11:22:44;;;;;;;;;;;;;;;30.23;23.82;100158.36;1703018;83;20612;-84
2022/06/17 11:25:49;;;;;;;;;;;;;;;30.20;23.67;100159.80;1711064;83;20572;-80
2022/06/17 11:28:57;;;;;;;;;;;;;;;30.12;23.53;100154.88;1712880;83;20205;-81
2022/06/17 11:32:01;;;;;;;;;;;;;;;30.00;22.94;100155.92;1711399;83;20560;-84
2022/06/17 11:35:07;;;;;;;;;;;;;;;29.84;23.55;100159.60;1708552;83;20190;-84
2022/06/17 11:38:20;;;;;;;;;;;;;;;29.73;24.73;100156.67;1710243;82;20189;-80
2022/06/17 11:41:30;;;;;;;;;;;;;;;29.63;24.72;100157.68;1710102;83;20196;-85
2022/06/17 11:44:34;;;;;;;;;;;;;;;29.50;25.02;100154.20;1711499;83;20202;-80
2022/06/17 11:47:40;;;;;;;;;;;;;;;29.44;25.28;100160.48;1709775;82;20204;-81
2022/06/17 11:50:46;;;;;;;;;;;;;;;29.41;24.36;100156.06;1710690;83;20202;-81
2022/06/17 11:53:57;;;;;;;;;;;;;;;29.30;23.13;100155.36;1708817;83;20200;-85
2022/06/17 11:57:01;;;;;;;;;;;;;;;29.18;22.91;100154.42;1708795;83;20213;-84
2022/06/17 12:00:11;;;;;;;;;;;;;;;29.14;23.38;100152.52;1707566;83;20562;-85
2022/06/17 12:03:22;;;;;;;;;;;;;;;29.08;23.21;100150.34;1710131;83;20228;-80
2022/06/17 12:06:35;;;;;;;;;;;;;;;28.98;23.42;100142.02;1711820;83;20215;-80
2022/06/17 12:09:43;;;;;;;;;;;;;;;28.92;23.38;100148.84;1709155;83;20204;-80
2022/06/17 12:12:48;;;;;;;;;;;;;;;28.93;23.58;100147.69;1711382;82;20237;-83
2022/06/17 12:16:00;;;;;;;;;;;;;;;28.97;23.85;100146.81;1710294;83;20199;-81
2022/06/17 12:19:06;;;;;;;;;;;;;;;28.94;23.69;100133.91;1713150;83;20189;-85
2022/06/17 12:22:13;;;;;;;;;;;;;;;28.86;23.56;100138.22;1711256;83;20209;-85
2022/06/17 12:25:23;;;;;;;;;;;;;;;28.75;23.66;100138.10;1711407;83;20624;-80
2022/06/17 12:28:43;;;;;;;;;;;;;;;28.66;24.44;100132.30;1713478;83;20709;-85
2022/06/17 12:31:53;;;;;;;;;;;;;;;28.62;24.53;100129.81;1726708;83;20685;-81
2022/06/17 12:35:06;;;;;;;;;;;;;;;28.62;24.28;100121.95;1700521;83;20468;-80
2022/06/17 12:38:25;;;;;;;;;;;;;;;28.59;24.66;100121.96;1723449;83;20197;-82
2022/06/17 12:41:32;;;;;;;;;;;;;;;28.51;24.33;100126.84;1714622;83;20185;-85
2022/06/17 12:45:04;;;;;;;;;;;;;;;28.46;24.65;100118.46;1730347;83;20201;-80
2022/06/17 12:48:14;;;;;;;;;;;;;;;28.44;24.86;100115.96;1729260;83;20193;-81
2022/06/17 12:55:18;;;;;;;;;;;;;;;28.28;24.91;100116.69;1704378;84;20216;-81
2022/06/17 12:58:33;;;;;;;;;;;;;;;28.17;25.05;100116.52;1724024;83;20198;-80
2022/06/17 13:01:52;;;;;;;;;;;;;;;28.13;24.85;100113.19;1721565;83;20198;-81
2022/06/17 13:05:12;;;;;;;;;;;;;;;28.09;24.86;100108.75;1727717;83;20189;-84
2022/06/17 13:08:42;;;;;;;;;;;;;;;28.04;25.03;100101.75;1703457;84;20507;-85
2022/06/17 13:11:50;;;;;;;;;;;;;;;27.98;25.24;100097.33;1701841;84;20607;-84
2022/06/17 13:15:08;;;;;;;;;;;;;;;27.98;25.77;100096.76;1703578;84;20595;-81
2022/06/17 13:18:22;;;;;;;;;;;;;;;27.99;25.13;100098.42;1703829;84;20220;-85
2022/06/17 13:22:05;;;;;;;;;;;;;;;28.05;25.10;100095.02;1703625;83;20204;-85
2022/06/17 13:25:31;;;;;;;;;;;;;;;28.09;25.18;100090.48;1704237;84;20604;-84
2022/06/17 13:28:39;;;;;;;;;;;;;;;28.12;25.22;100091.84;1646101;87;20217;-85
2022/06/17 13:31:43;;;;;;;;;;;;;;;28.14;25.03;100089.02;1703905;84;20204;-81
2022/06/17 13:34:51;;;;;;;;;;;;;;;28.17;24.88;100089.80;1720159;83;20465;-80
2022/06/17 13:38:05;;;;;;;;;;;;;;;28.15;25.06;100087.87;1733137;83;20195;-85
2022/06/17 13:41:11;;;;;;;;;;;;;;;28.06;25.13;100084.61;1733655;83;20202;-85
2022/06/17 13:44:31;;;;;;;;;;;;;;;27.93;25.17;100079.95;1733493;83;20193;-84
2022/06/17 13:48:00;;;;;;;;;;;;;;;27.93;25.87;100087.55;1732840;83;20245;-80
2022/06/17 13:51:21;;;;;;;;;;;;;;;27.88;25.89;100074.38;1733486;83;20622;-81
2022/06/17 13:54:42;;;;;;;;;;;;;;;27.76;26.74;100067.77;1730478;83;20186;-80
2022/06/17 13:58:20;;;;;;;;;;;;;;;27.74;26.17;100055.97;1733356;83;20209;-80
2022/06/17 14:01:34;;;;;;;;;;;;;;;27.66;26.42;100055.17;1673483;86;20207;-84
2022/06/17 14:04:38;;;;;;;;;;;;;;;27.60;26.82;100053.55;1673032;86;20462;-84
2022/06/17 14:08:01;;;;;;;;;;;;;;;27.56;27.32;100055.28;1732716;83;20536;-84
2022/06/17 14:14:35;;;;;;;;;;;;;;;27.47;27.14;100048.62;1731350;83;20186;-84
2022/06/17 14:17:38;;;;;;;;;;;;;;;27.37;27.09;100047.31;1728541;83;20521;-80
2022/06/17 14:20:45;;;;;;;;;;;;;;;27.29;26.77;100038.11;1703837;84;20228;-84
2022/06/17 14:23:53;;;;;;;;;;;;;;;27.19;26.64;100037.06;1702958;84;20209;-80
2022/06/17 14:26:58;;;;;;;;;;;;;;;27.10;26.96;100026.21;1703578;84;20209;-80
2022/06/17 14:30:22;;;;;;;;;;;;;;;26.96;27.20;100040.57;1704275;84;20205;-85
2022/06/17 14:33:29;;;;;;;;;;;;;;;26.86;27.20;100035.03;1703149;83;20224;-81
2022/06/17 14:36:52;;;;;;;;;;;;;;;26.80;27.70;100032.83;1703762;84;20196;-81
2022/06/17 14:40:01;;;;;;;;;;;;;;;26.78;27.44;100030.90;1704258;84;20428;-82
2022/06/17 14:43:20;;;;;;;;;;;;;;;26.75;27.04;100032.30;1703574;84;20200;-85
2022/06/17 14:46:24;;;;;;;;;;;;;;;26.71;27.20;100026.99;1708997;83;20206;-81
2022/06/17 14:49:51;;;;;;;;;;;;;;;26.62;27.24;100027.33;1731935;83;20186;-84
2022/06/17 14:53:06;;;;;;;;;;;;;;;26.56;27.25;100024.86;1733057;83;20214;-80
2022/06/17 14:56:23;;;;;;;;;;;;;;;26.50;27.44;100022.08;1732917;83;20202;-84
2022/06/17 14:59:32;;;;;;;;;;;;;;;26.50;27.33;100019.84;1733600;83;20851;-81
2022/06/17 15:02:51;;;;;;;;;;;;;;;26.49;27.57;100020.41;1724462;83;20274;-82
2022/06/17 15:05:55;;;;;;;;;;;;;;;26.50;27.64;100015.64;1720907;83;20201;-82
2022/06/17 15:08:59;;;;;;;;;;;;;;;26.48;27.52;100015.07;1721180;83;20406;-85
2022/06/17 15:12:08;;;;;;;;;;;;;;;26.39;27.38;100025.17;1719326;82;20245;-84
2022/06/17 15:15:15;;;;;;;;;;;;;;;26.29;27.82;100019.63;1722045;83;20669;-85
2022/06/17 15:18:16;;;;;;;;;;;;;;;26.21;27.77;100014.91;1732331;81;20189;-84
2022/06/17 15:21:09;;;;;;;;;;;;;;;26.14;27.85;100021.38;1733511;83;20206;-84
2022/06/17 15:24:34;;;;;;;;;;;;;;;26.11;28.07;100024.77;1720739;83;20186;-84
2022/06/17 15:27:55;;;;;;;;;;;;;;;26.10;27.75;100016.06;1733014;82;20209;-84
2022/06/17 15:30:59;;;;;;;;;;;;;;;26.12;27.80;100025.03;1731425;83;20181;-80
2022/06/17 15:34:08;;;;;;;;;;;;;;;26.12;27.84;100019.43;1686870;84;20201;-81
2022/06/17 15:37:12;;;;;;;;;;;;;;;26.14;28.34;100021.94;1708605;82;20193;-80
2022/06/17 15:40:28;;;;;;;;;;;;;;;26.11;27.85;100023.37;1708722;84;20184;-85
2022/06/17 15:43:34;;;;;;;;;;;;;;;26.08;27.94;100019.72;1672646;86;20546;-81
2022/06/17 15:46:43;;;;;;;;;;;;;;;26.05;28.32;100025.89;1714242;83;20594;-84
2022/06/17 15:49:50;;;;;;;;;;;;;;;25.99;28.61;100024.23;1731933;82;20614;-85
2022/06/17 15:52:55;;;;;;;;;;;;;;;25.88;28.58;100012.23;1730034;83;20234;-81
2022/06/17 15:56:00;;;;;;;;;;;;;;;25.77;28.73;100020.37;1728757;83;20214;-85
2022/06/17 15:59:05;;;;;;;;;;;;;;;25.64;28.68;100025.98;1729021;83;20178;-81
2022/06/17 16:02:12;;;;;;;;;;;;;;;25.54;29.29;100027.37;1725018;83;20621;-80
2022/06/17 16:05:19;;;;;;;;;;;;;;;25.45;29.54;100027.67;1719126;82;20205;-81
2022/06/17 16:08:46;;;;;;;;;;;;;;;25.37;29.89;100028.26;1719605;83;20205;-83
2022/06/17 16:11:51;;;;;;;;;;;;;;;25.32;30.32;100029.09;1720751;83;20193;-81
2022/06/17 16:15:22;;;;;;;;;;;;;;;25.26;30.74;100033.56;1719198;83;20197;-81
2022/06/17 16:18:34;;;;;;;;;;;;;;;25.18;30.80;100032.18;1718861;82;20193;-81
2022/06/17 16:21:42;;;;;;;;;;;;;;;25.10;31.04;100033.56;1720506;83;20245;-80
2022/06/17 16:25:00;;;;;;;;;;;;;;;25.04;31.43;100027.66;1720771;83;20871;-81
2022/06/17 16:28:07;;;;;;;;;;;;;;;24.97;31.58;100036.31;1721285;83;20201;-81